Time;durP1;ratioP1;P1;durP2;ratioP2;P2;SDS_P1;SDS_P2;PMS_P1;PMS_P2;Temp;Humidity;BMP_temperature;BMP_pressure;BME280_temperature;BME280_humidity;BME280_pressure;Samples;Min_cycle;Max_cycle;Signal;HPM_P1;HPM_P2
2021/04/07 00:01:47;;;;;;;13.87;9.80;;;1.70;99.90;;;;;;5072342;28;20216;-73
2021/04/07 00:04:13;;;;;;;10.90;8.47;;;1.60;99.90;;;;;;5073674;28;20248;-74
2021/04/07 00:06:40;;;;;;;12.87;8.90;;;1.70;99.90;;;;;;5073774;28;20166;-74
2021/04/07 00:09:07;;;;;;;13.80;8.63;;;1.70;99.90;;;;;;5074189;28;20219;-74
2021/04/07 00:11:33;;;;;;;11.60;7.93;;;1.80;99.90;;;;;;5073666;28;20519;-73
2021/04/07 00:14:00;;;;;;;10.03;8.37;;;2.00;99.90;;;;;;5073884;28;20836;-74
2021/04/07 00:16:26;;;;;;;12.70;8.67;;;2.00;99.90;;;;;;5073307;28;20282;-74
2021/04/07 00:18:51;;;;;;;14.07;7.87;;;1.90;99.90;;;;;;5088775;27;20462;-74
2021/04/07 00:21:17;;;;;;;9.90;7.40;;;1.80;99.90;;;;;;5080215;28;20200;-74
2021/04/07 00:23:43;;;;;;;9.73;6.90;;;1.90;99.90;;;;;;5073382;28;20211;-73
2021/04/07 00:26:09;;;;;;;9.00;6.90;;;2.00;99.90;;;;;;5073534;28;20416;-74
2021/04/07 00:28:34;;;;;;;9.77;6.40;;;2.10;99.90;;;;;;5074118;28;20181;-75
2021/04/07 00:31:00;;;;;;;8.57;6.40;;;2.00;99.90;;;;;;5071980;28;20229;-73
2021/04/07 00:33:25;;;;;;;9.50;6.63;;;2.00;99.90;;;;;;5073305;28;20185;-74
2021/04/07 00:35:51;;;;;;;10.53;7.40;;;1.90;99.90;;;;;;5076239;28;20177;-74
2021/04/07 00:38:17;;;;;;;12.13;7.50;;;2.00;99.90;;;;;;5076847;28;20177;-74
2021/04/07 00:40:42;;;;;;;9.63;7.50;;;2.00;99.90;;;;;;5076008;28;20439;-74
2021/04/07 00:43:08;;;;;;;10.50;7.13;;;1.80;99.90;;;;;;5077500;28;20231;-74
2021/04/07 00:45:34;;;;;;;8.33;6.23;;;1.70;99.90;;;;;;5077205;28;20227;-74
2021/04/07 00:48:00;;;;;;;9.10;7.27;;;1.80;99.90;;;;;;5076902;28;20220;-75
2021/04/07 00:50:28;;;;;;;8.67;5.83;;;1.70;99.90;;;;;;5078410;28;20197;-76
2021/04/07 00:52:54;;;;;;;9.13;6.80;;;1.80;99.90;;;;;;5076832;28;20189;-72
2021/04/07 00:55:23;;;;;;;9.80;6.40;;;1.70;99.90;;;;;;5076961;28;20407;-72
2021/04/07 00:57:50;;;;;;;10.10;7.30;;;1.80;99.90;;;;;;5076755;28;20245;-73
2021/04/07 01:00:18;;;;;;;8.90;7.40;;;1.60;99.90;;;;;;5077778;28;20535;-73
2021/04/07 01:02:45;;;;;;;11.00;8.73;;;1.60;99.90;;;;;;5076949;28;20476;-74
2021/04/07 01:05:11;;;;;;;13.10;8.05;;;1.50;99.90;;;;;;5077215;28;20624;-73
2021/04/07 01:07:37;;;;;;;10.03;7.43;;;1.60;99.90;;;;;;5076798;28;20158;-74
2021/04/07 01:10:10;;;;;;;9.53;7.53;;;1.70;99.90;;;;;;5077697;28;20947;-74
2021/04/07 01:12:37;;;;;;;8.00;6.53;;;1.80;99.90;;;;;;5076389;28;20201;-74
2021/04/07 01:15:06;;;;;;;8.17;6.50;;;1.80;99.90;;;;;;5076792;28;20400;-74
2021/04/07 01:17:32;;;;;;;7.70;6.93;;;1.60;99.90;;;;;;5076262;28;20423;-74
2021/04/07 01:19:58;;;;;;;8.73;6.20;;;1.60;99.90;;;;;;5076494;28;20718;-74
2021/04/07 01:22:25;;;;;;;8.40;6.80;;;1.70;99.90;;;;;;5076600;28;20193;-74
2021/04/07 01:24:51;;;;;;;8.32;5.55;;;1.70;99.90;;;;;;5076441;28;20165;-74
2021/04/07 01:27:16;;;;;;;11.00;6.30;;;1.60;99.90;;;;;;5076102;28;20707;-74
2021/04/07 01:29:42;;;;;;;9.10;6.70;;;1.40;99.90;;;;;;5075995;28;20223;-74
2021/04/07 01:32:08;;;;;;;9.90;6.80;;;1.60;99.90;;;;;;5076280;28;20423;-74
2021/04/07 01:34:34;;;;;;;13.70;6.40;;;1.70;99.90;;;;;;5076499;28;20469;-74
2021/04/07 01:37:02;;;;;;;11.27;6.50;;;1.80;99.90;;;;;;5076418;28;20568;-75
2021/04/07 01:39:30;;;;;;;10.83;7.30;;;1.80;99.90;;;;;;5074604;28;20257;-73
2021/04/07 01:41:55;;;;;;;8.32;6.85;;;1.70;99.90;;;;;;5077080;28;20435;-74
2021/04/07 01:44:23;;;;;;;12.03;7.30;;;1.60;99.90;;;;;;5076287;28;20529;-74
2021/04/07 01:46:48;;;;;;;10.70;9.00;;;1.60;99.90;;;;;;5075676;28;20424;-74
2021/04/07 01:49:15;;;;;;;10.50;7.83;;;1.70;99.90;;;;;;5076111;28;20419;-74
2021/04/07 01:51:42;;;;;;;19.60;11.00;;;1.70;99.90;;;;;;5075134;28;20505;-74
2021/04/07 01:54:12;;;;;;;14.57;9.87;;;1.70;99.90;;;;;;5077306;28;20431;-74
2021/04/07 01:56:49;;;;;;;11.10;9.20;;;1.60;99.90;;;;;;5077619;28;20416;-73
2021/04/07 01:59:17;;;;;;;10.90;7.45;;;1.70;99.90;;;;;;5074376;28;20414;-73
2021/04/07 02:01:43;;;;;;;11.40;7.53;;;1.70;99.90;;;;;;5075736;28;20654;-75
2021/04/07 02:04:09;;;;;;;9.60;8.50;;;1.70;99.90;;;;;;5077175;28;20459;-74
2021/04/07 02:06:34;;;;;;;7.60;5.97;;;1.60;99.90;;;;;;5075143;28;20219;-76
2021/04/07 02:09:00;;;;;;;11.13;6.63;;;1.40;99.90;;;;;;5076186;28;20177;-74
2021/04/07 02:11:26;;;;;;;12.60;6.53;;;1.40;99.90;;;;;;5076230;28;20207;-75
2021/04/07 02:13:52;;;;;;;10.30;6.00;;;1.20;99.90;;;;;;5077474;28;20198;-73
2021/04/07 02:16:18;;;;;;;12.32;6.25;;;1.20;99.90;;;;;;5075983;28;20196;-74
2021/04/07 02:18:43;;;;;;;9.47;5.93;;;1.20;99.90;;;;;;5076549;28;20193;-73
2021/04/07 02:21:16;;;;;;;9.10;5.50;;;1.30;99.90;;;;;;5095603;28;20612;-74
2021/04/07 02:23:41;;;;;;;8.57;6.27;;;1.40;99.90;;;;;;5096003;28;20542;-75
2021/04/07 02:26:08;;;;;;;7.83;5.43;;;1.30;99.90;;;;;;5093945;28;20416;-74
2021/04/07 02:28:34;;;;;;;9.70;5.73;;;1.20;99.90;;;;;;5095339;28;20258;-75
2021/04/07 02:31:00;;;;;;;9.73;5.80;;;1.20;99.90;;;;;;5095908;28;20564;-75
2021/04/07 02:33:26;;;;;;;7.40;6.40;;;1.20;99.90;;;;;;5095037;28;20630;-75
2021/04/07 02:35:51;;;;;;;8.33;6.00;;;1.20;99.90;;;;;;5094019;28;20495;-74
2021/04/07 02:38:18;;;;;;;7.83;6.00;;;1.30;99.90;;;;;;5095182;28;20527;-75
2021/04/07 02:40:43;;;;;;;7.33;5.63;;;1.40;99.90;;;;;;5093614;28;20620;-75
2021/04/07 02:43:09;;;;;;;8.33;6.30;;;1.40;99.90;;;;;;5095523;28;20497;-74
2021/04/07 02:45:35;;;;;;;8.40;5.47;;;1.50;99.90;;;;;;5092618;28;20590;-73
2021/04/07 02:48:02;;;;;;;10.90;6.07;;;1.70;99.90;;;;;;5095056;28;20403;-74
2021/04/07 02:50:27;;;;;;;10.20;6.50;;;1.80;99.90;;;;;;5093768;28;20488;-75
2021/04/07 02:52:53;;;;;;;8.17;6.00;;;1.80;99.90;;;;;;5095053;28;20900;-75
2021/04/07 02:55:18;;;;;;;8.83;6.00;;;1.70;99.90;;;;;;5095183;28;20183;-74
2021/04/07 02:57:44;;;;;;;8.10;5.63;;;1.70;99.90;;;;;;5092610;28;20314;-75
2021/04/07 03:00:10;;;;;;;8.50;6.70;;;1.70;99.90;;;;;;5094544;27;20212;-73
2021/04/07 03:02:36;;;;;;;10.37;7.40;;;1.50;99.90;;;;;;5093562;28;20232;-73
2021/04/07 03:05:02;;;;;;;7.63;6.73;;;1.50;99.90;;;;;;5094935;28;21165;-74
2021/04/07 03:07:28;;;;;;;12.27;8.00;;;1.50;99.90;;;;;;5093121;28;20528;-74
2021/04/07 03:09:53;;;;;;;9.17;8.27;;;1.60;99.90;;;;;;5094699;28;20399;-73
2021/04/07 03:12:19;;;;;;;7.57;6.87;;;1.60;99.90;;;;;;5094968;28;20169;-73
2021/04/07 03:14:44;;;;;;;17.97;8.30;;;1.60;99.90;;;;;;5093891;28;20275;-74
2021/04/07 03:17:11;;;;;;;14.10;7.97;;;1.70;99.90;;;;;;5094565;28;20180;-75
2021/04/07 03:19:37;;;;;;;9.63;7.90;;;1.80;99.90;;;;;;5093114;28;20474;-74
2021/04/07 03:22:03;;;;;;;10.77;8.10;;;1.80;99.90;;;;;;5094550;27;20521;-73
2021/04/07 03:24:28;;;;;;;8.67;7.27;;;1.80;99.90;;;;;;5093228;28;20256;-73
2021/04/07 03:26:54;;;;;;;14.57;8.10;;;1.80;99.90;;;;;;5093012;28;20502;-74
2021/04/07 03:29:19;;;;;;;10.63;7.50;;;1.80;99.90;;;;;;5081459;28;20189;-74
2021/04/07 03:31:45;;;;;;;8.30;6.83;;;1.90;99.90;;;;;;5074057;28;20193;-75
2021/04/07 03:34:11;;;;;;;10.60;8.07;;;2.00;99.90;;;;;;5074098;28;20253;-75
2021/04/07 03:36:36;;;;;;;10.13;7.37;;;2.20;99.90;;;;;;5073203;28;20162;-74
2021/04/07 03:39:03;;;;;;;9.43;7.90;;;2.30;99.90;;;;;;5076157;27;20188;-75
2021/04/07 03:41:28;;;;;;;11.40;8.07;;;2.10;99.90;;;;;;5094107;28;20552;-74
2021/04/07 03:43:54;;;;;;;11.97;7.00;;;2.00;99.90;;;;;;5094516;28;20443;-75
2021/04/07 03:46:19;;;;;;;10.40;8.20;;;2.00;99.90;;;;;;5094337;28;20610;-74
2021/04/07 03:48:45;;;;;;;8.10;6.90;;;2.00;99.90;;;;;;5094044;28;20624;-74
2021/04/07 03:51:10;;;;;;;8.47;7.03;;;1.90;99.90;;;;;;5091545;27;20224;-73
2021/04/07 03:53:36;;;;;;;10.50;7.77;;;2.00;99.90;;;;;;5094407;28;20185;-74
2021/04/07 03:56:02;;;;;;;9.57;8.00;;;2.00;99.90;;;;;;5094709;28;20537;-74
2021/04/07 03:58:27;;;;;;;10.10;7.93;;;2.00;99.90;;;;;;5094615;28;20211;-73
2021/04/07 04:00:53;;;;;;;11.97;8.50;;;2.00;99.90;;;;;;5087587;28;20212;-74
2021/04/07 04:03:21;;;;;;;12.00;8.03;;;2.10;99.90;;;;;;5074517;28;20221;-73
2021/04/07 04:05:47;;;;;;;10.20;8.70;;;2.20;99.90;;;;;;5074039;28;20788;-73
2021/04/07 04:08:12;;;;;;;12.93;7.67;;;2.20;99.90;;;;;;5074008;28;20423;-74
2021/04/07 04:10:38;;;;;;;10.23;7.90;;;2.20;99.90;;;;;;5074198;28;20479;-75
2021/04/07 04:13:05;;;;;;;8.60;7.80;;;2.20;99.90;;;;;;5073634;28;20169;-75
2021/04/07 04:15:32;;;;;;;11.43;9.10;;;2.30;99.90;;;;;;5073347;28;20177;-75
2021/04/07 04:17:57;;;;;;;10.70;7.80;;;2.40;99.90;;;;;;5073001;28;20416;-74
2021/04/07 04:20:23;;;;;;;11.37;10.07;;;2.30;99.90;;;;;;5072296;28;20427;-75
2021/04/07 04:22:49;;;;;;;14.30;11.37;;;2.30;99.90;;;;;;5073787;28;20243;-74
2021/04/07 04:25:20;;;;;;;16.30;11.30;;;2.20;99.90;;;;;;5073285;28;20180;-75
2021/04/07 04:27:47;;;;;;;15.27;10.43;;;2.20;99.90;;;;;;5073309;28;20490;-73
2021/04/07 04:30:15;;;;;;;18.70;11.53;;;2.20;99.90;;;;;;5073074;28;20415;-73
2021/04/07 04:32:41;;;;;;;14.27;10.17;;;2.20;99.90;;;;;;5074631;28;20483;-72
2021/04/07 04:35:08;;;;;;;12.80;10.40;;;2.20;99.90;;;;;;5073698;28;20400;-74
2021/04/07 04:37:34;;;;;;;16.43;11.53;;;2.30;99.90;;;;;;5073473;28;20429;-73
2021/04/07 04:40:00;;;;;;;12.90;10.03;;;2.30;99.90;;;;;;5072966;28;22180;-73
2021/04/07 04:42:25;;;;;;;13.00;11.07;;;2.30;99.90;;;;;;5073452;28;20454;-73
2021/04/07 04:44:51;;;;;;;16.63;10.90;;;2.20;99.90;;;;;;5080156;28;20779;-73
2021/04/07 04:47:17;;;;;;;19.30;10.87;;;2.30;99.90;;;;;;5093567;28;20303;-74
2021/04/07 04:49:43;;;;;;;13.03;10.37;;;2.30;99.90;;;;;;5093510;28;20176;-73
2021/04/07 04:52:09;;;;;;;16.43;10.53;;;2.40;99.90;;;;;;5094056;28;20443;-75
2021/04/07 04:54:35;;;;;;;15.17;9.90;;;2.30;99.90;;;;;;5092034;28;20437;-74
2021/04/07 04:57:00;;;;;;;16.10;10.30;;;2.30;99.90;;;;;;5093329;28;20173;-74
2021/04/07 04:59:26;;;;;;;13.30;10.20;;;2.30;99.90;;;;;;5091574;28;20514;-74
2021/04/07 05:01:52;;;;;;;16.63;10.00;;;2.20;99.90;;;;;;5093484;28;20654;-74
2021/04/07 05:04:18;;;;;;;19.13;10.83;;;2.20;99.90;;;;;;5091012;27;20202;-74
2021/04/07 05:06:43;;;;;;;14.40;10.30;;;2.30;99.90;;;;;;5092999;28;20162;-74
2021/04/07 05:09:09;;;;;;;13.83;10.90;;;2.30;99.90;;;;;;5093168;28;20487;-74
2021/04/07 05:11:34;;;;;;;14.80;9.83;;;2.20;99.90;;;;;;5093040;28;20197;-75
2021/04/07 05:14:01;;;;;;;12.63;9.47;;;2.20;99.90;;;;;;5092047;28;20196;-73
2021/04/07 05:16:27;;;;;;;13.30;9.83;;;2.20;99.90;;;;;;5075938;28;20181;-74
2021/04/07 05:18:53;;;;;;;15.53;9.40;;;2.20;99.90;;;;;;5072520;28;20815;-74
2021/04/07 05:21:18;;;;;;;14.10;10.37;;;2.20;99.90;;;;;;5075082;28;20625;-74
2021/04/07 05:23:44;;;;;;;13.90;9.40;;;2.20;99.90;;;;;;5076537;28;20207;-73
2021/04/07 05:26:10;;;;;;;13.80;10.07;;;2.20;99.90;;;;;;5077281;28;20161;-73
2021/04/07 05:28:36;;;;;;;13.73;10.10;;;2.20;99.90;;;;;;5076052;28;20178;-73
2021/04/07 05:31:02;;;;;;;13.50;9.30;;;2.20;99.90;;;;;;5076088;28;20190;-74
2021/04/07 05:33:34;;;;;;;11.90;8.93;;;2.20;99.90;;;;;;5088573;28;20426;-74
2021/04/07 05:36:01;;;;;;;12.63;8.83;;;2.30;99.90;;;;;;5096169;28;20447;-73
2021/04/07 05:38:27;;;;;;;12.83;9.50;;;2.10;99.90;;;;;;5087847;28;20427;-73
2021/04/07 05:40:54;;;;;;;12.20;8.77;;;2.10;99.90;;;;;;5076327;28;20423;-73
2021/04/07 05:43:21;;;;;;;12.60;10.00;;;2.10;99.90;;;;;;5075155;28;20201;-74
2021/04/07 05:45:47;;;;;;;16.47;9.70;;;2.10;99.90;;;;;;5089727;27;20422;-73
2021/04/07 05:48:13;;;;;;;15.87;10.20;;;2.10;99.90;;;;;;5090190;28;20427;-74
2021/04/07 05:50:50;;;;;;;15.70;10.00;;;2.00;99.90;;;;;;5076593;28;20430;-73
2021/04/07 05:53:16;;;;;;;15.07;10.17;;;1.90;99.90;;;;;;5076504;28;20624;-73
2021/04/07 05:55:50;;;;;;;14.50;10.63;;;1.90;99.90;;;;;;5084634;28;20423;-73
2021/04/07 05:58:16;;;;;;;13.60;10.17;;;2.00;99.90;;;;;;5087802;28;20257;-72
2021/04/07 06:00:42;;;;;;;14.77;9.73;;;2.00;99.90;;;;;;5096738;28;20584;-73
2021/04/07 06:03:09;;;;;;;19.57;11.37;;;2.10;99.90;;;;;;5094395;28;20493;-72
2021/04/07 06:05:36;;;;;;;15.77;11.25;;;2.10;99.90;;;;;;5096240;28;20414;-73
2021/04/07 06:08:02;;;;;;;12.77;8.77;;;2.10;99.90;;;;;;5092936;27;20228;-73
2021/04/07 06:10:29;;;;;;;14.67;10.03;;;2.10;99.90;;;;;;5096669;28;20438;-74
2021/04/07 06:12:55;;;;;;;13.20;9.00;;;2.10;99.90;;;;;;5096883;28;20912;-75
2021/04/07 06:15:21;;;;;;;15.20;10.50;;;2.10;99.90;;;;;;5084048;28;20460;-75
2021/04/07 06:17:54;;;;;;;14.03;10.40;;;2.10;99.90;;;;;;5092896;27;20484;-74
2021/04/07 06:20:21;;;;;;;15.63;10.03;;;2.10;99.90;;;;;;5092481;28;20450;-73
2021/04/07 06:22:47;;;;;;;13.47;10.10;;;2.10;99.90;;;;;;5082079;28;20463;-73
2021/04/07 06:25:13;;;;;;;14.47;9.83;;;2.20;99.90;;;;;;5098432;28;20420;-73
2021/04/07 06:27:39;;;;;;;12.77;9.77;;;2.10;99.90;;;;;;5103922;28;20406;-73
2021/04/07 06:30:06;;;;;;;13.17;9.23;;;2.20;99.90;;;;;;5085169;27;20822;-75
2021/04/07 06:32:31;;;;;;;11.10;9.07;;;2.10;99.90;;;;;;5091439;28;20658;-73
2021/04/07 06:34:57;;;;;;;15.03;9.00;;;2.10;99.90;;;;;;5094082;28;20422;-74
2021/04/07 06:37:23;;;;;;;12.57;8.70;;;2.00;99.90;;;;;;5096460;28;20188;-74
2021/04/07 06:39:49;;;;;;;12.77;9.50;;;2.00;99.90;;;;;;5091376;27;20262;-75
2021/04/07 06:42:15;;;;;;;11.47;9.80;;;2.00;99.90;;;;;;5104574;28;20195;-74
2021/04/07 06:44:41;;;;;;;15.77;12.40;;;2.00;99.90;;;;;;5105282;28;20529;-74
2021/04/07 06:47:07;;;;;;;13.33;10.07;;;1.90;99.90;;;;;;5100355;28;20513;-73
2021/04/07 06:49:34;;;;;;;12.00;8.90;;;1.90;99.90;;;;;;5102765;28;20421;-76
2021/04/07 06:52:02;;;;;;;15.73;10.20;;;1.90;99.90;;;;;;5101706;27;20449;-74
2021/04/07 06:54:29;;;;;;;9.13;8.20;;;1.90;99.90;;;;;;5096710;28;20419;-75
2021/04/07 06:56:55;;;;;;;11.77;8.93;;;1.90;99.90;;;;;;5099870;28;20431;-75
2021/04/07 06:59:22;;;;;;;12.87;8.50;;;1.90;99.90;;;;;;5091746;27;20845;-75
2021/04/07 07:01:47;;;;;;;13.50;9.53;;;1.90;99.90;;;;;;5102757;28;21086;-75
2021/04/07 07:04:14;;;;;;;11.90;9.10;;;2.00;99.90;;;;;;5102173;28;20452;-75
2021/04/07 07:06:40;;;;;;;9.97;8.90;;;2.10;99.90;;;;;;5095145;28;20588;-75
2021/04/07 07:09:32;;;;;;;11.60;9.43;;;2.10;99.90;;;;;;5098031;28;20461;-75
2021/04/07 07:11:58;;;;;;;13.07;10.07;;;2.10;99.90;;;;;;5099508;28;20565;-75
2021/04/07 07:14:24;;;;;;;15.73;11.60;;;2.10;99.90;;;;;;5096021;27;20590;-74
2021/04/07 07:16:51;;;;;;;14.50;9.63;;;2.10;99.90;;;;;;5090605;28;20910;-75
2021/04/07 07:19:34;;;;;;;13.43;11.20;;;2.10;99.90;;;;;;5103846;28;20180;-75
2021/04/07 07:22:03;;;;;;;13.10;10.23;;;2.00;99.90;;;;;;5085049;28;20434;-74
2021/04/07 07:24:39;;;;;;;14.17;10.87;;;1.90;99.90;;;;;;5089380;28;20434;-76
2021/04/07 07:27:07;;;;;;;13.27;9.87;;;1.90;99.90;;;;;;5107358;27;20775;-75
2021/04/07 07:29:37;;;;;;;11.87;9.67;;;1.90;99.90;;;;;;5097630;28;20402;-74
2021/04/07 07:32:08;;;;;;;12.97;9.50;;;2.00;99.90;;;;;;5094325;28;20441;-75
2021/04/07 07:34:34;;;;;;;16.10;10.40;;;1.90;99.90;;;;;;5094191;28;20407;-75
2021/04/07 07:37:03;;;;;;;11.93;9.70;;;1.80;99.90;;;;;;5107794;28;20501;-75
2021/04/07 07:39:31;;;;;;;13.13;9.37;;;1.90;99.90;;;;;;5099106;28;20405;-76
2021/04/07 07:42:03;;;;;;;16.47;10.83;;;2.00;99.90;;;;;;5100486;28;21022;-76
2021/04/07 07:44:30;;;;;;;12.47;9.63;;;2.10;99.90;;;;;;5092048;28;20535;-75
2021/04/07 07:47:03;;;;;;;12.13;9.80;;;2.10;99.90;;;;;;5106209;28;21278;-75
2021/04/07 07:49:29;;;;;;;12.40;9.33;;;2.00;99.90;;;;;;5096672;28;20749;-75
2021/04/07 07:51:55;;;;;;;10.30;8.63;;;2.00;99.90;;;;;;5092821;28;20450;-75
2021/04/07 07:54:23;;;;;;;11.20;8.90;;;2.10;99.90;;;;;;5097204;28;20409;-75
2021/04/07 07:56:49;;;;;;;12.67;8.83;;;2.00;99.90;;;;;;5093822;28;20491;-75
2021/04/07 07:59:29;;;;;;;9.53;7.90;;;2.10;99.90;;;;;;5104656;28;20452;-75
2021/04/07 08:01:55;;;;;;;9.80;7.67;;;2.10;99.90;;;;;;5095811;28;20533;-75
2021/04/07 08:04:22;;;;;;;8.47;7.20;;;2.20;99.90;;;;;;5097236;28;20902;-75
2021/04/07 08:06:48;;;;;;;9.10;7.50;;;2.20;99.90;;;;;;5094109;28;20446;-75
2021/04/07 08:09:14;;;;;;;8.70;7.40;;;2.20;99.90;;;;;;5102267;28;20651;-75
2021/04/07 08:11:47;;;;;;;9.93;8.07;;;2.20;99.90;;;;;;5102847;28;20673;-74
2021/04/07 08:14:17;;;;;;;10.60;8.40;;;2.20;99.90;;;;;;5102125;28;20479;-74
2021/04/07 08:16:44;;;;;;;10.73;7.13;;;2.10;99.90;;;;;;5092853;28;20415;-74
2021/04/07 08:19:12;;;;;;;9.57;7.97;;;2.10;99.90;;;;;;5100965;28;21221;-74
2021/04/07 08:21:42;;;;;;;10.73;8.17;;;2.10;99.90;;;;;;5091819;28;20453;-75
2021/04/07 08:24:10;;;;;;;11.00;7.30;;;2.00;99.90;;;;;;5078514;28;20479;-75
2021/04/07 08:26:38;;;;;;;10.10;8.17;;;2.00;99.90;;;;;;5098372;28;20402;-76
2021/04/07 08:29:06;;;;;;;9.43;8.33;;;2.10;99.90;;;;;;5098371;28;20418;-75
2021/04/07 08:31:34;;;;;;;12.03;9.87;;;2.10;99.90;;;;;;5097097;28;20525;-76
2021/04/07 08:34:03;;;;;;;13.50;8.77;;;2.20;99.90;;;;;;5099296;28;20422;-76
2021/04/07 08:36:29;;;;;;;11.20;9.57;;;2.20;99.90;;;;;;5098608;28;20979;-76
2021/04/07 08:39:11;;;;;;;12.67;9.57;;;2.20;99.90;;;;;;5100824;28;20422;-75
2021/04/07 08:41:37;;;;;;;11.20;9.50;;;2.20;99.90;;;;;;5097693;27;20563;-75
2021/04/07 08:44:05;;;;;;;11.67;9.97;;;2.20;99.90;;;;;;5100184;28;20468;-74
2021/04/07 08:46:54;;;;;;;12.57;9.90;;;2.20;99.90;;;;;;5098317;28;20427;-74
2021/04/07 08:49:36;;;;;;;11.80;9.90;;;2.20;99.90;;;;;;5098762;28;20418;-74
2021/04/07 08:52:22;;;;;;;11.37;9.17;;;2.30;99.90;;;;;;5097755;28;20545;-74
2021/04/07 08:54:53;;;;;;;13.17;9.53;;;2.40;99.90;;;;;;5099383;28;20413;-75
2021/04/07 08:57:36;;;;;;;11.03;9.33;;;2.30;99.90;;;;;;5103153;28;20497;-73
2021/04/07 09:00:13;;;;;;;16.57;11.07;;;2.40;99.90;;;;;;5101259;28;20434;-76
2021/04/07 09:02:52;;;;;;;12.60;9.70;;;2.40;99.90;;;;;;5101949;27;20571;-75
2021/04/07 09:05:32;;;;;;;9.17;8.23;;;2.40;99.90;;;;;;5101310;28;20454;-75
2021/04/07 09:07:59;;;;;;;11.23;9.47;;;2.50;99.90;;;;;;5101681;28;20500;-75
2021/04/07 09:10:25;;;;;;;13.32;11.25;;;2.50;99.90;;;;;;5100263;28;20417;-74
2021/04/07 09:12:52;;;;;;;11.80;9.77;;;2.60;99.90;;;;;;5101723;28;20287;-75
2021/04/07 09:15:20;;;;;;;10.73;9.23;;;2.60;99.90;;;;;;5100361;28;20442;-74
2021/04/07 09:17:51;;;;;;;12.03;8.50;;;2.60;99.90;;;;;;5102317;28;20498;-74
2021/04/07 09:20:36;;;;;;;8.80;7.83;;;2.60;99.90;;;;;;5100375;28;20886;-74
2021/04/07 09:23:14;;;;;;;8.07;7.00;;;2.70;99.90;;;;;;5101653;27;20477;-73
2021/04/07 09:25:55;;;;;;;8.33;7.23;;;2.60;99.90;;;;;;5100964;28;20569;-74
2021/04/07 09:28:37;;;;;;;9.37;8.37;;;2.40;99.90;;;;;;5098662;28;20423;-75
2021/04/07 09:31:12;;;;;;;9.50;8.17;;;2.40;99.90;;;;;;5101283;27;20437;-75
2021/04/07 09:33:39;;;;;;;8.90;8.00;;;2.50;99.90;;;;;;5101610;28;20864;-76
2021/04/07 09:36:06;;;;;;;9.07;8.17;;;2.60;99.90;;;;;;5101255;28;20438;-74
2021/04/07 09:38:34;;;;;;;12.40;9.20;;;2.70;99.90;;;;;;5100970;28;20434;-75
2021/04/07 09:41:08;;;;;;;9.23;8.20;;;2.70;99.90;;;;;;5102034;28;20434;-74
2021/04/07 09:43:34;;;;;;;10.93;8.30;;;2.80;99.90;;;;;;5101386;28;20461;-75
2021/04/07 09:46:00;;;;;;;9.57;8.67;;;2.80;99.90;;;;;;5101377;28;20421;-75
2021/04/07 09:48:46;;;;;;;9.43;8.43;;;2.80;99.90;;;;;;5098560;28;20437;-73
2021/04/07 09:51:31;;;;;;;9.00;8.00;;;2.90;99.90;;;;;;5099834;27;20551;-74
2021/04/07 09:54:24;;;;;;;9.27;8.27;;;2.90;99.90;;;;;;5100606;28;20801;-75
2021/04/07 09:56:51;;;;;;;8.70;7.80;;;2.90;99.90;;;;;;5100086;27;20472;-73
2021/04/07 09:59:18;;;;;;;9.77;7.00;;;3.00;99.90;;;;;;5099886;28;20499;-75
2021/04/07 10:01:44;;;;;;;7.83;7.07;;;3.10;99.90;;;;;;5100885;27;20459;-74
2021/04/07 10:04:10;;;;;;;7.23;6.20;;;3.10;99.90;;;;;;5102177;28;20466;-75
2021/04/07 10:06:38;;;;;;;7.20;6.60;;;3.30;99.90;;;;;;5096709;28;20437;-74
2021/04/07 10:09:07;;;;;;;8.30;6.57;;;3.40;99.90;;;;;;5100165;28;20454;-74
2021/04/07 10:11:40;;;;;;;7.00;6.03;;;3.50;99.90;;;;;;5100315;28;20435;-79
2021/04/07 10:14:07;;;;;;;6.57;5.97;;;3.60;99.90;;;;;;5100228;28;20757;-74
2021/04/07 10:16:38;;;;;;;6.83;5.40;;;3.70;99.90;;;;;;5099066;28;20466;-75
2021/04/07 10:19:08;;;;;;;5.83;5.33;;;3.70;99.90;;;;;;5097293;28;20449;-74
2021/04/07 10:21:34;;;;;;;5.70;5.20;;;3.70;99.90;;;;;;5099784;27;21054;-76
2021/04/07 10:24:01;;;;;;;5.87;5.27;;;3.70;99.90;;;;;;5099861;27;20462;-73
2021/04/07 10:26:27;;;;;;;5.37;4.87;;;3.70;99.90;;;;;;5099336;28;20468;-75
2021/04/07 10:29:00;;;;;;;7.33;5.53;;;3.80;99.90;;;;;;5099256;27;20462;-74
2021/04/07 10:31:28;;;;;;;6.70;6.03;;;3.80;99.90;;;;;;5099414;28;20946;-75
2021/04/07 10:34:08;;;;;;;8.40;6.37;;;3.80;99.90;;;;;;5100222;27;20438;-74
2021/04/07 10:36:39;;;;;;;6.43;5.57;;;3.80;99.90;;;;;;5098825;28;20426;-74
2021/04/07 10:39:15;;;;;;;5.50;5.00;;;3.90;99.90;;;;;;5100028;28;20425;-75
2021/04/07 10:41:46;;;;;;;6.20;4.77;;;3.90;99.90;;;;;;5099160;28;20484;-75
2021/04/07 10:44:21;;;;;;;5.00;4.60;;;4.00;99.90;;;;;;5098816;28;20462;-75
2021/04/07 10:46:47;;;;;;;4.90;4.50;;;4.10;99.90;;;;;;5100283;28;20443;-75
2021/04/07 10:49:15;;;;;;;5.37;4.20;;;4.20;99.90;;;;;;5098325;28;20416;-75
2021/04/07 10:51:44;;;;;;;4.60;4.20;;;4.20;99.90;;;;;;5100100;27;20296;-75
2021/04/07 10:54:10;;;;;;;4.57;4.20;;;4.30;99.90;;;;;;5099813;28;20417;-75
2021/04/07 10:56:37;;;;;;;4.83;4.43;;;4.40;99.90;;;;;;5098654;28;20429;-75
2021/04/07 10:59:05;;;;;;;5.37;4.87;;;4.30;99.90;;;;;;5097322;28;20449;-75
2021/04/07 11:01:34;;;;;;;5.83;5.33;;;4.20;99.90;;;;;;5099128;28;20435;-76
2021/04/07 11:04:19;;;;;;;5.57;5.17;;;4.30;99.90;;;;;;5100177;28;21002;-74
2021/04/07 11:06:50;;;;;;;5.30;4.90;;;4.10;99.90;;;;;;5099252;28;20448;-75
2021/04/07 11:09:16;;;;;;;4.80;4.40;;;4.10;99.90;;;;;;5098334;28;20482;-74
2021/04/07 11:11:42;;;;;;;5.80;5.30;;;4.10;99.90;;;;;;5095387;28;20507;-75
2021/04/07 11:14:10;;;;;;;4.90;4.50;;;4.10;99.90;;;;;;5093903;27;20495;-75
2021/04/07 11:16:36;;;;;;;5.40;4.90;;;4.10;99.90;;;;;;5095574;28;20431;-74
2021/04/07 11:19:13;;;;;;;5.93;5.43;;;4.10;99.90;;;;;;5095018;28;20452;-75
2021/04/07 11:21:39;;;;;;;6.37;5.77;;;4.10;99.90;;;;;;5098915;28;20436;-74
2021/04/07 11:24:05;;;;;;;6.97;5.27;;;4.20;99.90;;;;;;5100498;27;20980;-74
2021/04/07 11:26:31;;;;;;;6.00;5.40;;;4.20;99.90;;;;;;5099852;28;20185;-74
2021/04/07 11:28:56;;;;;;;7.97;6.30;;;4.10;99.90;;;;;;5098857;28;20776;-75
2021/04/07 11:31:25;;;;;;;7.20;6.50;;;4.20;99.90;;;;;;5097506;28;20282;-75
2021/04/07 11:33:54;;;;;;;8.40;6.30;;;4.30;99.90;;;;;;5099467;28;20195;-73
2021/04/07 11:36:40;;;;;;;8.00;6.63;;;4.30;99.90;;;;;;5083755;28;20440;-74
2021/04/07 11:46:42;;;;;;;6.37;5.63;;;4.50;99.90;;;;;;5096855;28;20411;-74
2021/04/07 11:49:08;;;;;;;6.27;5.40;;;4.50;99.90;;;;;;5098783;28;20196;-75
2021/04/07 11:51:39;;;;;;;6.00;5.33;;;4.70;99.90;;;;;;5103858;28;20449;-75
2021/04/07 11:54:09;;;;;;;11.20;6.23;;;4.80;99.90;;;;;;5104597;28;20433;-75
2021/04/07 11:56:37;;;;;;;6.67;5.20;;;4.80;99.90;;;;;;5105729;28;20417;-75
2021/04/07 11:59:03;;;;;;;9.63;6.27;;;4.80;99.90;;;;;;5097024;28;20487;-73
2021/04/07 12:01:29;;;;;;;8.17;6.80;;;4.90;99.90;;;;;;5101504;28;20955;-74
2021/04/07 12:03:55;;;;;;;6.03;5.10;;;4.80;99.90;;;;;;5100689;28;20598;-74
2021/04/07 12:06:20;;;;;;;7.60;4.70;;;4.60;99.90;;;;;;5092158;28;20197;-74
2021/04/07 12:08:47;;;;;;;4.77;3.90;;;4.60;99.90;;;;;;5100650;28;20183;-75
2021/04/07 12:11:13;;;;;;;5.40;4.90;;;4.50;99.90;;;;;;5097831;28;20816;-75
2021/04/07 12:13:38;;;;;;;6.87;4.60;;;4.60;99.90;;;;;;5099896;27;20441;-74
2021/04/07 12:16:04;;;;;;;5.03;4.50;;;4.70;99.90;;;;;;5100131;28;20447;-73
2021/04/07 12:18:30;;;;;;;7.60;4.73;;;4.80;99.90;;;;;;5099647;28;20193;-75
2021/04/07 12:20:55;;;;;;;6.47;5.37;;;5.00;99.90;;;;;;5099713;28;20206;-75
2021/04/07 12:23:21;;;;;;;10.80;6.10;;;5.20;99.90;;;;;;5099963;27;20569;-73
2021/04/07 12:25:47;;;;;;;5.47;4.77;;;5.50;99.90;;;;;;5101208;28;20640;-74
2021/04/07 12:28:13;;;;;;;9.50;6.23;;;5.80;99.90;;;;;;5101863;28;20274;-75
2021/04/07 12:30:49;;;;;;;5.83;5.07;;;6.00;99.90;;;;;;5102834;28;20910;-74
2021/04/07 12:33:17;;;;;;;7.17;4.80;;;6.20;99.90;;;;;;5104515;27;20442;-74
2021/04/07 12:35:42;;;;;;;9.10;5.90;;;6.10;99.90;;;;;;5105760;28;20445;-74
2021/04/07 12:38:08;;;;;;;7.27;5.00;;;6.10;99.90;;;;;;5106110;28;20422;-74
2021/04/07 12:40:34;;;;;;;4.37;3.80;;;5.80;99.90;;;;;;5105563;28;20443;-74
2021/04/07 12:42:59;;;;;;;7.17;4.33;;;5.80;99.90;;;;;;5104072;28;20227;-76
2021/04/07 12:45:25;;;;;;;6.57;4.17;;;5.80;99.90;;;;;;5105954;28;20637;-74
2021/04/07 12:47:50;;;;;;;6.67;3.87;;;5.90;99.90;;;;;;5105124;28;20246;-76
2021/04/07 12:50:16;;;;;;;7.40;3.83;;;5.90;99.90;;;;;;5105071;28;20257;-75
2021/04/07 12:52:41;;;;;;;5.60;3.53;;;5.90;99.90;;;;;;5105033;28;20215;-75
2021/04/07 12:55:07;;;;;;;6.53;3.77;;;5.60;99.90;;;;;;5105904;27;20307;-75
2021/04/07 12:57:33;;;;;;;8.27;4.20;;;5.40;99.90;;;;;;5105848;28;20215;-74
2021/04/07 12:59:59;;;;;;;10.63;4.70;;;5.20;99.90;;;;;;5104946;28;20417;-75
2021/04/07 13:02:25;;;;;;;7.17;3.60;;;5.20;99.90;;;;;;5104892;28;20590;-74